sensor_id;sensor_type;location;lat;lon;timestamp;temperature;humidity
27667;DHT22;15074;50.940;5.282;2023-04-15T00:00:32;7.90;99.90
27667;DHT22;15074;50.940;5.282;2023-04-15T00:02:58;7.90;99.90
27667;DHT22;15074;50.940;5.282;2023-04-15T00:05:25;8.00;99.90
27667;DHT22;15074;50.940;5.282;2023-04-15T00:07:50;8.10;99.90
27667;DHT22;15074;50.940;5.282;2023-04-15T00:10:16;8.10;99.90
27667;DHT22;15074;50.940;5.282;2023-04-15T00:12:42;8.20;99.90
27667;DHT22;15074;50.940;5.282;2023-04-15T00:15:08;8.30;99.90
27667;DHT22;15074;50.940;5.282;2023-04-15T00:17:34;8.40;99.90
27667;DHT22;15074;50.940;5.282;2023-04-15T00:20:00;8.50;99.90
27667;DHT22;15074;50.940;5.282;2023-04-15T00:22:26;8.50;99.90
27667;DHT22;15074;50.940;5.282;2023-04-15T00:24:52;8.40;99.90
27667;DHT22;15074;50.940;5.282;2023-04-15T00:27:18;8.40;99.90
27667;DHT22;15074;50.940;5.282;2023-04-15T00:29:44;8.40;99.90
27667;DHT22;15074;50.940;5.282;2023-04-15T00:32:09;8.40;99.90
27667;DHT22;15074;50.940;5.282;2023-04-15T00:34:35;8.50;99.90
27667;DHT22;15074;50.940;5.282;2023-04-15T00:37:01;8.50;99.90
27667;DHT22;15074;50.940;5.282;2023-04-15T00:39:27;8.70;99.90
27667;DHT22;15074;50.940;5.282;2023-04-15T00:41:53;8.70;99.90
27667;DHT22;15074;50.940;5.282;2023-04-15T00:44:19;8.70;99.90
27667;DHT22;15074;50.940;5.282;2023-04-15T00:46:46;8.80;99.90
27667;DHT22;15074;50.940;5.282;2023-04-15T00:49:12;9.00;99.90
27667;DHT22;15074;50.940;5.282;2023-04-15T00:51:38;9.00;99.90
27667;DHT22;15074;50.940;5.282;2023-04-15T00:54:04;9.10;99.90
27667;DHT22;15074;50.940;5.282;2023-04-15T00:56:30;9.20;99.90
27667;DHT22;15074;50.940;5.282;2023-04-15T00:58:59;9.40;99.90
27667;DHT22;15074;50.940;5.282;2023-04-15T01:01:25;9.30;99.90
27667;DHT22;15074;50.940;5.282;2023-04-15T01:03:51;9.30;99.90
27667;DHT22;15074;50.940;5.282;2023-04-15T01:06:17;9.30;99.90
27667;DHT22;15074;50.940;5.282;2023-04-15T01:08:43;9.30;99.90
27667;DHT22;15074;50.940;5.282;2023-04-15T01:11:11;9.30;99.90
27667;DHT22;15074;50.940;5.282;2023-04-15T01:13:37;9.20;99.90
27667;DHT22;15074;50.940;5.282;2023-04-15T01:16:03;9.40;99.90
27667;DHT22;15074;50.940;5.282;2023-04-15T01:18:29;9.10;99.90
27667;DHT22;15074;50.940;5.282;2023-04-15T01:20:56;9.20;99.90
27667;DHT22;15074;50.940;5.282;2023-04-15T01:23:22;9.20;99.90
27667;DHT22;15074;50.940;5.282;2023-04-15T01:25:48;9.30;99.90
27667;DHT22;15074;50.940;5.282;2023-04-15T01:28:14;9.30;99.90
27667;DHT22;15074;50.940;5.282;2023-04-15T01:30:40;9.40;99.90
27667;DHT22;15074;50.940;5.282;2023-04-15T01:33:06;9.40;99.90
27667;DHT22;15074;50.940;5.282;2023-04-15T01:35:32;9.30;99.90
27667;DHT22;15074;50.940;5.282;2023-04-15T01:38:08;9.10;99.90
27667;DHT22;15074;50.940;5.282;2023-04-15T01:40:34;8.90;99.90
27667;DHT22;15074;50.940;5.282;2023-04-15T01:43:03;8.80;99.90
27667;DHT22;15074;50.940;5.282;2023-04-15T01:45:28;8.80;99.90
27667;DHT22;15074;50.940;5.282;2023-04-15T01:47:54;8.90;99.90
27667;DHT22;15074;50.940;5.282;2023-04-15T01:50:20;9.00;99.90
27667;DHT22;15074;50.940;5.282;2023-04-15T01:52:46;9.10;99.90
27667;DHT22;15074;50.940;5.282;2023-04-15T01:55:13;9.30;99.90
27667;DHT22;15074;50.940;5.282;2023-04-15T01:57:39;9.60;99.90
27667;DHT22;15074;50.940;5.282;2023-04-15T02:00:05;9.50;99.90
27667;DHT22;15074;50.940;5.282;2023-04-15T02:02:32;9.30;99.90
27667;DHT22;15074;50.940;5.282;2023-04-15T02:04:58;9.10;99.90
27667;DHT22;15074;50.940;5.282;2023-04-15T02:07:25;9.10;99.90
27667;DHT22;15074;50.940;5.282;2023-04-15T02:09:51;9.10;99.90
27667;DHT22;15074;50.940;5.282;2023-04-15T02:12:17;9.00;99.90
27667;DHT22;15074;50.940;5.282;2023-04-15T02:14:43;8.90;99.90
27667;DHT22;15074;50.940;5.282;2023-04-15T02:17:09;8.70;99.90
27667;DHT22;15074;50.940;5.282;2023-04-15T02:19:35;8.50;99.90
27667;DHT22;15074;50.940;5.282;2023-04-15T02:22:01;8.50;99.90
27667;DHT22;15074;50.940;5.282;2023-04-15T02:24:29;8.60;99.90
27667;DHT22;15074;50.940;5.282;2023-04-15T02:26:55;8.70;99.90
27667;DHT22;15074;50.940;5.282;2023-04-15T02:29:20;8.60;99.90
27667;DHT22;15074;50.940;5.282;2023-04-15T02:31:48;8.40;99.90
27667;DHT22;15074;50.940;5.282;2023-04-15T02:34:13;8.50;99.90
27667;DHT22;15074;50.940;5.282;2023-04-15T02:36:39;8.60;99.90
27667;DHT22;15074;50.940;5.282;2023-04-15T02:39:05;8.70;99.90
27667;DHT22;15074;50.940;5.282;2023-04-15T02:41:31;8.60;99.90
27667;DHT22;15074;50.940;5.282;2023-04-15T02:43:57;8.60;99.90
27667;DHT22;15074;50.940;5.282;2023-04-15T02:46:23;8.70;99.90
27667;DHT22;15074;50.940;5.282;2023-04-15T02:48:49;8.80;99.90
27667;DHT22;15074;50.940;5.282;2023-04-15T02:51:17;8.90;99.90
27667;DHT22;15074;50.940;5.282;2023-04-15T02:53:44;8.80;99.90
27667;DHT22;15074;50.940;5.282;2023-04-15T02:56:10;8.50;99.90
27667;DHT22;15074;50.940;5.282;2023-04-15T02:58:37;8.30;99.90
27667;DHT22;15074;50.940;5.282;2023-04-15T03:01:03;8.10;99.90
27667;DHT22;15074;50.940;5.282;2023-04-15T03:03:29;8.20;99.90
27667;DHT22;15074;50.940;5.282;2023-04-15T03:05:55;8.30;99.90
27667;DHT22;15074;50.940;5.282;2023-04-15T03:08:21;8.40;99.90
27667;DHT22;15074;50.940;5.282;2023-04-15T03:10:46;8.40;99.90
27667;DHT22;15074;50.940;5.282;2023-04-15T03:13:12;8.40;99.90
27667;DHT22;15074;50.940;5.282;2023-04-15T03:15:38;8.50;99.90
27667;DHT22;15074;50.940;5.282;2023-04-15T03:18:04;8.60;99.90
27667;DHT22;15074;50.940;5.282;2023-04-15T03:20:29;8.60;99.90
27667;DHT22;15074;50.940;5.282;2023-04-15T03:22:55;8.80;99.90
27667;DHT22;15074;50.940;5.282;2023-04-15T03:25:21;8.90;99.90
27667;DHT22;15074;50.940;5.282;2023-04-15T03:27:47;8.80;99.90
27667;DHT22;15074;50.940;5.282;2023-04-15T03:30:12;8.60;99.90
27667;DHT22;15074;50.940;5.282;2023-04-15T03:32:38;8.50;99.90
27667;DHT22;15074;50.940;5.282;2023-04-15T03:35:04;8.40;99.90
27667;DHT22;15074;50.940;5.282;2023-04-15T03:37:30;8.30;99.90
27667;DHT22;15074;50.940;5.282;2023-04-15T03:39:56;8.50;99.90
27667;DHT22;15074;50.940;5.282;2023-04-15T03:42:22;8.60;99.90
27667;DHT22;15074;50.940;5.282;2023-04-15T03:44:48;8.80;99.90
27667;DHT22;15074;50.940;5.282;2023-04-15T03:47:14;8.90;99.90
27667;DHT22;15074;50.940;5.282;2023-04-15T03:49:40;8.90;99.90
27667;DHT22;15074;50.940;5.282;2023-04-15T03:52:05;9.00;99.90
27667;DHT22;15074;50.940;5.282;2023-04-15T03:54:31;8.90;99.90
27667;DHT22;15074;50.940;5.282;2023-04-15T03:56:57;8.90;99.90
27667;DHT22;15074;50.940;5.282;2023-04-15T03:59:22;8.90;99.90
27667;DHT22;15074;50.940;5.282;2023-04-15T04:01:48;9.00;99.90
27667;DHT22;15074;50.940;5.282;2023-04-15T04:04:14;9.00;99.90
27667;DHT22;15074;50.940;5.282;2023-04-15T04:06:40;9.10;99.90
27667;DHT22;15074;50.940;5.282;2023-04-15T04:09:05;9.10;99.90
27667;DHT22;15074;50.940;5.282;2023-04-15T04:11:31;9.10;99.90
27667;DHT22;15074;50.940;5.282;2023-04-15T04:13:57;9.00;99.90
27667;DHT22;15074;50.940;5.282;2023-04-15T04:16:23;9.10;99.90
27667;DHT22;15074;50.940;5.282;2023-04-15T04:18:49;9.10;99.90
27667;DHT22;15074;50.940;5.282;2023-04-15T04:21:15;9.00;99.90
27667;DHT22;15074;50.940;5.282;2023-04-15T04:23:41;8.90;99.90
27667;DHT22;15074;50.940;5.282;2023-04-15T04:26:06;8.90;99.90
27667;DHT22;15074;50.940;5.282;2023-04-15T04:28:32;9.00;99.90
27667;DHT22;15074;50.940;5.282;2023-04-15T04:30:58;8.80;99.90
27667;DHT22;15074;50.940;5.282;2023-04-15T04:33:24;8.80;99.90
27667;DHT22;15074;50.940;5.282;2023-04-15T04:35:49;8.90;99.90
27667;DHT22;15074;50.940;5.282;2023-04-15T04:38:15;9.00;99.90
27667;DHT22;15074;50.940;5.282;2023-04-15T04:40:40;9.00;99.90
27667;DHT22;15074;50.940;5.282;2023-04-15T04:43:06;9.10;99.90
27667;DHT22;15074;50.940;5.282;2023-04-15T04:45:32;9.10;99.90
27667;DHT22;15074;50.940;5.282;2023-04-15T04:55:13;8.90;99.90
27667;DHT22;15074;50.940;5.282;2023-04-15T06:54:07;12.90;99.90
27667;DHT22;15074;50.940;5.282;2023-04-15T06:56:33;13.90;99.90
27667;DHT22;15074;50.940;5.282;2023-04-15T06:58:58;14.00;99.90
27667;DHT22;15074;50.940;5.282;2023-04-15T07:01:24;15.30;99.90
27667;DHT22;15074;50.940;5.282;2023-04-15T07:03:50;16.60;99.90
27667;DHT22;15074;50.940;5.282;2023-04-15T07:06:16;18.20;99.90
27667;DHT22;15074;50.940;5.282;2023-04-15T07:08:41;19.00;99.90
27667;DHT22;15074;50.940;5.282;2023-04-15T07:11:07;18.80;99.50
27667;DHT22;15074;50.940;5.282;2023-04-15T07:13:33;19.50;99.60
27667;DHT22;15074;50.940;5.282;2023-04-15T07:15:58;20.30;96.90
27667;DHT22;15074;50.940;5.282;2023-04-15T07:18:24;20.40;95.40
27667;DHT22;15074;50.940;5.282;2023-04-15T07:20:50;20.70;94.40
27667;DHT22;15074;50.940;5.282;2023-04-15T07:23:16;20.50;93.40
27667;DHT22;15074;50.940;5.282;2023-04-15T07:25:42;20.20;93.60
27667;DHT22;15074;50.940;5.282;2023-04-15T07:28:08;20.60;93.30
27667;DHT22;15074;50.940;5.282;2023-04-15T07:30:34;20.40;93.10
27667;DHT22;15074;50.940;5.282;2023-04-15T07:33:00;21.10;92.30
27667;DHT22;15074;50.940;5.282;2023-04-15T07:35:27;21.50;91.70
27667;DHT22;15074;50.940;5.282;2023-04-15T07:37:54;21.60;90.40
27667;DHT22;15074;50.940;5.282;2023-04-15T07:40:20;21.20;90.10
27667;DHT22;15074;50.940;5.282;2023-04-15T07:42:46;20.70;90.30
27667;DHT22;15074;50.940;5.282;2023-04-15T07:45:14;21.20;90.10
27667;DHT22;15074;50.940;5.282;2023-04-15T07:47:39;21.40;89.40
27667;DHT22;15074;50.940;5.282;2023-04-15T07:50:07;22.30;87.20
27667;DHT22;15074;50.940;5.282;2023-04-15T07:52:33;22.60;85.20
27667;DHT22;15074;50.940;5.282;2023-04-15T07:55:07;22.70;84.50
27667;DHT22;15074;50.940;5.282;2023-04-15T07:57:34;22.20;84.30
27667;DHT22;15074;50.940;5.282;2023-04-15T08:00:01;22.20;84.20
27667;DHT22;15074;50.940;5.282;2023-04-15T08:02:28;22.40;83.90
27667;DHT22;15074;50.940;5.282;2023-04-15T08:04:53;22.30;83.80
27667;DHT22;15074;50.940;5.282;2023-04-15T08:07:19;22.60;83.60
27667;DHT22;15074;50.940;5.282;2023-04-15T08:09:45;22.90;83.20
27667;DHT22;15074;50.940;5.282;2023-04-15T08:12:11;21.80;85.00
27667;DHT22;15074;50.940;5.282;2023-04-15T08:14:38;22.40;85.50
27667;DHT22;15074;50.940;5.282;2023-04-15T08:17:04;23.10;85.20
27667;DHT22;15074;50.940;5.282;2023-04-15T08:19:30;23.70;82.90
27667;DHT22;15074;50.940;5.282;2023-04-15T08:21:56;23.70;83.20
27667;DHT22;15074;50.940;5.282;2023-04-15T08:24:23;24.30;81.50
27667;DHT22;15074;50.940;5.282;2023-04-15T08:26:51;25.00;79.00
27667;DHT22;15074;50.940;5.282;2023-04-15T08:29:17;23.80;81.70
27667;DHT22;15074;50.940;5.282;2023-04-15T08:31:42;22.60;83.60
27667;DHT22;15074;50.940;5.282;2023-04-15T08:34:10;21.30;87.30
27667;DHT22;15074;50.940;5.282;2023-04-15T08:36:36;20.70;90.10
27667;DHT22;15074;50.940;5.282;2023-04-15T08:39:02;20.70;90.40
27667;DHT22;15074;50.940;5.282;2023-04-15T08:41:37;21.20;90.00
27667;DHT22;15074;50.940;5.282;2023-04-15T08:44:05;22.30;86.70
27667;DHT22;15074;50.940;5.282;2023-04-15T08:46:31;21.50;86.70
27667;DHT22;15074;50.940;5.282;2023-04-15T08:48:59;21.40;87.80
27667;DHT22;15074;50.940;5.282;2023-04-15T08:51:28;21.60;88.20
27667;DHT22;15074;50.940;5.282;2023-04-15T08:53:54;22.40;85.30
27667;DHT22;15074;50.940;5.282;2023-04-15T08:56:24;22.30;86.10
27667;DHT22;15074;50.940;5.282;2023-04-15T08:58:51;21.60;85.90
27667;DHT22;15074;50.940;5.282;2023-04-15T09:01:17;20.80;88.80
27667;DHT22;15074;50.940;5.282;2023-04-15T09:03:43;21.30;88.70
27667;DHT22;15074;50.940;5.282;2023-04-15T09:06:10;21.80;87.60
27667;DHT22;15074;50.940;5.282;2023-04-15T09:08:36;22.60;86.00
27667;DHT22;15074;50.940;5.282;2023-04-15T09:11:03;22.00;85.50
27667;DHT22;15074;50.940;5.282;2023-04-15T09:13:29;21.90;85.50
27667;DHT22;15074;50.940;5.282;2023-04-15T09:15:55;22.00;83.50
27667;DHT22;15074;50.940;5.282;2023-04-15T09:18:31;22.20;84.20
27667;DHT22;15074;50.940;5.282;2023-04-15T09:21:05;22.90;82.30
27667;DHT22;15074;50.940;5.282;2023-04-15T09:23:34;22.50;82.40
27667;DHT22;15074;50.940;5.282;2023-04-15T09:26:01;21.90;83.40
27667;DHT22;15074;50.940;5.282;2023-04-15T09:28:28;23.00;80.90
27667;DHT22;15074;50.940;5.282;2023-04-15T09:30:58;23.20;81.60
27667;DHT22;15074;50.940;5.282;2023-04-15T09:33:25;23.60;80.40
27667;DHT22;15074;50.940;5.282;2023-04-15T09:36:00;22.60;81.10
27667;DHT22;15074;50.940;5.282;2023-04-15T09:38:26;22.00;79.00
27667;DHT22;15074;50.940;5.282;2023-04-15T09:40:52;21.40;82.40
27667;DHT22;15074;50.940;5.282;2023-04-15T09:43:18;21.60;82.10
27667;DHT22;15074;50.940;5.282;2023-04-15T09:45:52;22.40;81.60
27667;DHT22;15074;50.940;5.282;2023-04-15T09:48:19;23.70;80.60
27667;DHT22;15074;50.940;5.282;2023-04-15T09:50:47;23.40;80.60
27667;DHT22;15074;50.940;5.282;2023-04-15T09:53:18;23.60;81.40
27667;DHT22;15074;50.940;5.282;2023-04-15T09:55:51;24.90;78.20
27667;DHT22;15074;50.940;5.282;2023-04-15T09:58:22;23.70;77.10
27667;DHT22;15074;50.940;5.282;2023-04-15T10:00:49;22.20;81.00
27667;DHT22;15074;50.940;5.282;2023-04-15T10:03:22;22.20;81.80
27667;DHT22;15074;50.940;5.282;2023-04-15T10:05:49;23.60;78.40
27667;DHT22;15074;50.940;5.282;2023-04-15T10:08:20;23.40;75.70
27667;DHT22;15074;50.940;5.282;2023-04-15T10:10:47;23.60;75.70
27667;DHT22;15074;50.940;5.282;2023-04-15T10:13:16;23.20;78.00
27667;DHT22;15074;50.940;5.282;2023-04-15T10:15:43;23.10;77.80
27667;DHT22;15074;50.940;5.282;2023-04-15T10:18:10;23.70;76.00
27667;DHT22;15074;50.940;5.282;2023-04-15T10:20:37;23.20;72.00
27667;DHT22;15074;50.940;5.282;2023-04-15T10:23:05;22.80;71.70
27667;DHT22;15074;50.940;5.282;2023-04-15T10:25:32;22.40;74.20
27667;DHT22;15074;50.940;5.282;2023-04-15T10:27:59;22.40;74.70
27667;DHT22;15074;50.940;5.282;2023-04-15T10:30:25;23.20;72.20
27667;DHT22;15074;50.940;5.282;2023-04-15T10:32:51;23.00;70.10
27667;DHT22;15074;50.940;5.282;2023-04-15T10:35:18;22.30;70.40
27667;DHT22;15074;50.940;5.282;2023-04-15T10:37:46;21.70;66.90
27667;DHT22;15074;50.940;5.282;2023-04-15T10:43:02;21.10;68.50
27667;DHT22;15074;50.940;5.282;2023-04-15T10:45:33;21.20;66.70
27667;DHT22;15074;50.940;5.282;2023-04-15T10:48:02;21.60;66.80
27667;DHT22;15074;50.940;5.282;2023-04-15T10:50:30;21.50;68.80
27667;DHT22;15074;50.940;5.282;2023-04-15T10:52:57;21.70;71.10
27667;DHT22;15074;50.940;5.282;2023-04-15T10:55:25;21.90;71.50
27667;DHT22;15074;50.940;5.282;2023-04-15T10:57:52;22.20;70.50
27667;DHT22;15074;50.940;5.282;2023-04-15T11:00:20;22.50;72.40
27667;DHT22;15074;50.940;5.282;2023-04-15T11:02:57;22.30;69.30
27667;DHT22;15074;50.940;5.282;2023-04-15T11:08:08;22.70;69.80
27667;DHT22;15074;50.940;5.282;2023-04-15T11:13:19;21.70;70.70
27667;DHT22;15074;50.940;5.282;2023-04-15T11:15:55;21.90;72.70
27667;DHT22;15074;50.940;5.282;2023-04-15T11:18:25;22.20;71.40
27667;DHT22;15074;50.940;5.282;2023-04-15T11:20:53;22.00;71.60
27667;DHT22;15074;50.940;5.282;2023-04-15T11:23:38;21.70;72.40
27667;DHT22;15074;50.940;5.282;2023-04-15T11:26:06;21.60;73.20
27667;DHT22;15074;50.940;5.282;2023-04-15T11:28:38;21.50;75.20
27667;DHT22;15074;50.940;5.282;2023-04-15T11:31:10;22.20;74.40
27667;DHT22;15074;50.940;5.282;2023-04-15T11:33:37;21.70;74.70
27667;DHT22;15074;50.940;5.282;2023-04-15T11:36:03;21.80;74.40
27667;DHT22;15074;50.940;5.282;2023-04-15T11:38:29;22.10;74.70
27667;DHT22;15074;50.940;5.282;2023-04-15T11:40:56;22.80;74.30
27667;DHT22;15074;50.940;5.282;2023-04-15T11:43:22;23.20;72.60
27667;DHT22;15074;50.940;5.282;2023-04-15T11:45:53;24.20;70.90
27667;DHT22;15074;50.940;5.282;2023-04-15T11:48:22;23.50;69.40
27667;DHT22;15074;50.940;5.282;2023-04-15T11:51:05;23.40;70.60
27667;DHT22;15074;50.940;5.282;2023-04-15T11:53:40;23.40;66.60
27667;DHT22;15074;50.940;5.282;2023-04-15T11:56:08;22.90;68.90
27667;DHT22;15074;50.940;5.282;2023-04-15T11:58:36;22.70;69.70
27667;DHT22;15074;50.940;5.282;2023-04-15T12:01:03;22.70;71.50
27667;DHT22;15074;50.940;5.282;2023-04-15T12:03:34;23.20;70.00
27667;DHT22;15074;50.940;5.282;2023-04-15T12:06:07;22.70;70.70
27667;DHT22;15074;50.940;5.282;2023-04-15T12:16:32;22.90;70.30
27667;DHT22;15074;50.940;5.282;2023-04-15T12:18:59;22.80;71.80
27667;DHT22;15074;50.940;5.282;2023-04-15T12:21:31;23.10;69.00
27667;DHT22;15074;50.940;5.282;2023-04-15T12:24:01;23.00;69.90
27667;DHT22;15074;50.940;5.282;2023-04-15T12:26:34;22.20;74.70
27667;DHT22;15074;50.940;5.282;2023-04-15T12:29:05;22.50;72.10
27667;DHT22;15074;50.940;5.282;2023-04-15T12:31:31;22.70;68.20
27667;DHT22;15074;50.940;5.282;2023-04-15T12:33:58;23.20;69.50
27667;DHT22;15074;50.940;5.282;2023-04-15T12:36:26;23.10;68.40
27667;DHT22;15074;50.940;5.282;2023-04-15T12:38:51;22.50;69.00
27667;DHT22;15074;50.940;5.282;2023-04-15T12:41:17;22.40;69.50
27667;DHT22;15074;50.940;5.282;2023-04-15T12:43:44;22.30;66.50
27667;DHT22;15074;50.940;5.282;2023-04-15T12:46:12;21.90;68.00
27667;DHT22;15074;50.940;5.282;2023-04-15T12:48:38;21.60;69.00
27667;DHT22;15074;50.940;5.282;2023-04-15T12:51:04;22.00;65.00
27667;DHT22;15074;50.940;5.282;2023-04-15T12:53:30;21.40;67.10
27667;DHT22;15074;50.940;5.282;2023-04-15T12:55:56;21.50;67.90
27667;DHT22;15074;50.940;5.282;2023-04-15T12:58:22;21.50;69.20
27667;DHT22;15074;50.940;5.282;2023-04-15T13:00:47;21.80;68.90
27667;DHT22;15074;50.940;5.282;2023-04-15T13:03:14;21.40;68.20
27667;DHT22;15074;50.940;5.282;2023-04-15T13:05:40;20.60;69.80
27667;DHT22;15074;50.940;5.282;2023-04-15T13:08:06;20.70;70.40
27667;DHT22;15074;50.940;5.282;2023-04-15T13:10:34;20.70;69.70
27667;DHT22;15074;50.940;5.282;2023-04-15T13:13:01;21.00;69.70
27667;DHT22;15074;50.940;5.282;2023-04-15T13:15:28;21.30;69.20
27667;DHT22;15074;50.940;5.282;2023-04-15T13:17:54;21.70;67.00
27667;DHT22;15074;50.940;5.282;2023-04-15T13:20:19;22.10;66.80
27667;DHT22;15074;50.940;5.282;2023-04-15T13:22:45;21.90;67.90
27667;DHT22;15074;50.940;5.282;2023-04-15T13:25:11;21.80;67.20
27667;DHT22;15074;50.940;5.282;2023-04-15T13:27:36;21.40;68.80
27667;DHT22;15074;50.940;5.282;2023-04-15T13:30:03;21.10;68.10
27667;DHT22;15074;50.940;5.282;2023-04-15T13:32:29;21.10;69.70
27667;DHT22;15074;50.940;5.282;2023-04-15T13:34:55;21.00;70.90
27667;DHT22;15074;50.940;5.282;2023-04-15T13:37:25;20.60;72.70
27667;DHT22;15074;50.940;5.282;2023-04-15T13:39:52;19.80;74.10
27667;DHT22;15074;50.940;5.282;2023-04-15T13:42:18;19.30;75.90
27667;DHT22;15074;50.940;5.282;2023-04-15T13:44:43;19.20;76.20
27667;DHT22;15074;50.940;5.282;2023-04-15T13:47:09;19.10;77.00
27667;DHT22;15074;50.940;5.282;2023-04-15T13:49:35;19.30;77.20
27667;DHT22;15074;50.940;5.282;2023-04-15T13:52:01;19.40;76.90
27667;DHT22;15074;50.940;5.282;2023-04-15T13:54:26;19.30;77.30
27667;DHT22;15074;50.940;5.282;2023-04-15T13:56:53;19.30;78.70
27667;DHT22;15074;50.940;5.282;2023-04-15T13:59:21;19.50;79.20
27667;DHT22;15074;50.940;5.282;2023-04-15T14:01:46;19.50;78.60
27667;DHT22;15074;50.940;5.282;2023-04-15T14:04:12;19.10;77.30
27667;DHT22;15074;50.940;5.282;2023-04-15T14:06:38;19.00;78.70
27667;DHT22;15074;50.940;5.282;2023-04-15T14:09:04;19.00;79.90
27667;DHT22;15074;50.940;5.282;2023-04-15T14:11:29;19.30;79.20
27667;DHT22;15074;50.940;5.282;2023-04-15T14:13:55;19.20;81.20
27667;DHT22;15074;50.940;5.282;2023-04-15T14:16:21;19.10;77.20
27667;DHT22;15074;50.940;5.282;2023-04-15T14:18:46;19.30;77.10
27667;DHT22;15074;50.940;5.282;2023-04-15T16:29:57;14.80;98.30
27667;DHT22;15074;50.940;5.282;2023-04-15T18:18:59;12.20;99.90
27667;DHT22;15074;50.940;5.282;2023-04-15T18:31:33;11.50;99.90
27667;DHT22;15074;50.940;5.282;2023-04-15T18:37:21;11.50;99.90
27667;DHT22;15074;50.940;5.282;2023-04-15T18:39:47;11.50;99.90
27667;DHT22;15074;50.940;5.282;2023-04-15T18:42:13;11.40;99.90
27667;DHT22;15074;50.940;5.282;2023-04-15T18:44:38;11.40;99.90
27667;DHT22;15074;50.940;5.282;2023-04-15T18:47:04;11.40;99.90
27667;DHT22;15074;50.940;5.282;2023-04-15T18:49:31;11.40;99.90
27667;DHT22;15074;50.940;5.282;2023-04-15T18:51:57;11.30;99.90
27667;DHT22;15074;50.940;5.282;2023-04-15T18:54:23;11.30;99.90
27667;DHT22;15074;50.940;5.282;2023-04-15T18:56:50;11.30;99.90
27667;DHT22;15074;50.940;5.282;2023-04-15T18:59:16;11.30;99.90
27667;DHT22;15074;50.940;5.282;2023-04-15T19:01:41;11.30;99.90
27667;DHT22;15074;50.940;5.282;2023-04-15T19:04:07;11.20;99.90
27667;DHT22;15074;50.940;5.282;2023-04-15T19:06:34;11.10;99.90
27667;DHT22;15074;50.940;5.282;2023-04-15T19:09:00;11.10;99.90
27667;DHT22;15074;50.940;5.282;2023-04-15T19:11:26;11.10;99.90
27667;DHT22;15074;50.940;5.282;2023-04-15T19:13:52;11.20;99.90
27667;DHT22;15074;50.940;5.282;2023-04-15T19:16:18;11.20;99.90
27667;DHT22;15074;50.940;5.282;2023-04-15T19:18:44;11.10;99.90
27667;DHT22;15074;50.940;5.282;2023-04-15T19:21:11;11.20;99.90
27667;DHT22;15074;50.940;5.282;2023-04-15T19:23:37;11.20;99.90
27667;DHT22;15074;50.940;5.282;2023-04-15T19:26:03;11.10;99.90
27667;DHT22;15074;50.940;5.282;2023-04-15T19:28:29;11.00;99.90
27667;DHT22;15074;50.940;5.282;2023-04-15T19:30:56;10.90;99.90
27667;DHT22;15074;50.940;5.282;2023-04-15T19:33:22;10.80;99.90
27667;DHT22;15074;50.940;5.282;2023-04-15T19:35:48;10.70;99.90
27667;DHT22;15074;50.940;5.282;2023-04-15T19:38:15;10.70;99.90
27667;DHT22;15074;50.940;5.282;2023-04-15T19:40:40;10.70;99.90
27667;DHT22;15074;50.940;5.282;2023-04-15T19:43:06;10.50;99.90
27667;DHT22;15074;50.940;5.282;2023-04-15T19:45:32;10.50;99.90
27667;DHT22;15074;50.940;5.282;2023-04-15T19:47:58;10.50;99.90
27667;DHT22;15074;50.940;5.282;2023-04-15T19:50:24;10.50;99.90
27667;DHT22;15074;50.940;5.282;2023-04-15T19:52:52;10.40;99.90
27667;DHT22;15074;50.940;5.282;2023-04-15T19:55:18;10.40;99.90
27667;DHT22;15074;50.940;5.282;2023-04-15T19:57:44;10.50;99.90
27667;DHT22;15074;50.940;5.282;2023-04-15T20:00:10;10.40;99.90
27667;DHT22;15074;50.940;5.282;2023-04-15T20:02:36;10.40;99.90
27667;DHT22;15074;50.940;5.282;2023-04-15T20:05:02;10.30;99.90
27667;DHT22;15074;50.940;5.282;2023-04-15T20:07:27;10.30;99.90
27667;DHT22;15074;50.940;5.282;2023-04-15T20:09:53;10.30;99.90
27667;DHT22;15074;50.940;5.282;2023-04-15T20:12:19;10.30;99.90
27667;DHT22;15074;50.940;5.282;2023-04-15T20:14:44;10.30;99.90
27667;DHT22;15074;50.940;5.282;2023-04-15T20:17:11;10.30;99.90
27667;DHT22;15074;50.940;5.282;2023-04-15T20:19:36;10.30;99.90
27667;DHT22;15074;50.940;5.282;2023-04-15T20:22:02;10.30;99.90
27667;DHT22;15074;50.940;5.282;2023-04-15T20:24:28;10.30;99.90
27667;DHT22;15074;50.940;5.282;2023-04-15T20:26:53;10.30;99.90
27667;DHT22;15074;50.940;5.282;2023-04-15T20:29:19;10.40;99.90
27667;DHT22;15074;50.940;5.282;2023-04-15T20:31:45;10.50;99.90
27667;DHT22;15074;50.940;5.282;2023-04-15T20:34:10;10.40;99.90
27667;DHT22;15074;50.940;5.282;2023-04-15T20:36:36;10.40;99.90
27667;DHT22;15074;50.940;5.282;2023-04-15T20:39:02;10.30;99.90
27667;DHT22;15074;50.940;5.282;2023-04-15T20:41:27;10.40;99.90
27667;DHT22;15074;50.940;5.282;2023-04-15T20:43:53;10.50;99.90
27667;DHT22;15074;50.940;5.282;2023-04-15T20:46:19;10.60;99.90
27667;DHT22;15074;50.940;5.282;2023-04-15T20:48:45;10.70;99.90
27667;DHT22;15074;50.940;5.282;2023-04-15T20:51:11;10.60;99.90
27667;DHT22;15074;50.940;5.282;2023-04-15T20:53:36;10.50;99.90
27667;DHT22;15074;50.940;5.282;2023-04-15T20:56:02;10.40;99.90
27667;DHT22;15074;50.940;5.282;2023-04-15T20:58:28;10.20;99.90
27667;DHT22;15074;50.940;5.282;2023-04-15T21:00:54;10.10;99.90
27667;DHT22;15074;50.940;5.282;2023-04-15T21:03:19;10.00;99.90
27667;DHT22;15074;50.940;5.282;2023-04-15T21:05:45;10.00;99.90
27667;DHT22;15074;50.940;5.282;2023-04-15T21:08:11;10.00;99.90
27667;DHT22;15074;50.940;5.282;2023-04-15T21:10:37;10.10;99.90
27667;DHT22;15074;50.940;5.282;2023-04-15T21:13:04;10.10;99.90
27667;DHT22;15074;50.940;5.282;2023-04-15T21:15:31;10.10;99.90
27667;DHT22;15074;50.940;5.282;2023-04-15T21:17:56;10.20;99.90
27667;DHT22;15074;50.940;5.282;2023-04-15T21:20:22;10.20;99.90
27667;DHT22;15074;50.940;5.282;2023-04-15T21:22:48;10.20;99.90
27667;DHT22;15074;50.940;5.282;2023-04-15T21:25:13;10.10;99.90
27667;DHT22;15074;50.940;5.282;2023-04-15T21:27:39;10.00;99.90
27667;DHT22;15074;50.940;5.282;2023-04-15T21:30:05;10.00;99.90
27667;DHT22;15074;50.940;5.282;2023-04-15T21:32:31;10.00;99.90
27667;DHT22;15074;50.940;5.282;2023-04-15T21:34:56;10.00;99.90
27667;DHT22;15074;50.940;5.282;2023-04-15T21:37:22;9.90;99.90
27667;DHT22;15074;50.940;5.282;2023-04-15T21:39:48;9.90;99.90
27667;DHT22;15074;50.940;5.282;2023-04-15T21:42:13;9.90;99.90
27667;DHT22;15074;50.940;5.282;2023-04-15T21:44:39;9.90;99.90
27667;DHT22;15074;50.940;5.282;2023-04-15T21:47:05;9.80;99.90
27667;DHT22;15074;50.940;5.282;2023-04-15T21:49:30;9.90;99.90
27667;DHT22;15074;50.940;5.282;2023-04-15T21:51:56;10.00;99.90
27667;DHT22;15074;50.940;5.282;2023-04-15T21:54:26;10.00;99.90
27667;DHT22;15074;50.940;5.282;2023-04-15T21:56:53;9.90;99.90
27667;DHT22;15074;50.940;5.282;2023-04-15T21:59:18;9.90;99.90